createdAt,value
2019-03-29T00:02:24.455Z,5.33
2019-03-29T00:04:54.456Z,4.90
2019-03-29T00:07:38.488Z,5.27
2019-03-29T00:09:56.522Z,4.37
2019-03-29T00:12:26.564Z,4.77
2019-03-29T00:14:56.734Z,4.70
2019-03-29T00:17:40.996Z,4.80
2019-03-29T00:20:11.163Z,5.23
2019-03-29T00:22:41.200Z,5.07
2019-03-29T00:25:11.444Z,4.60
2019-03-29T00:27:41.553Z,4.67
2019-03-29T00:30:12.245Z,4.17
2019-03-29T00:32:42.361Z,4.87
2019-03-29T00:35:12.616Z,4.67
2019-03-29T00:37:53.461Z,4.20
2019-03-29T00:40:14.881Z,4.83
2019-03-29T00:42:45.296Z,4.87
2019-03-29T00:45:16.768Z,4.23
2019-03-29T00:47:47.126Z,4.73
2019-03-29T00:50:17.314Z,4.87
2019-03-29T00:52:47.376Z,5.17
2019-03-29T00:55:17.608Z,6.03
2019-03-29T00:57:50.465Z,4.80
2019-03-29T01:00:20.887Z,4.30
2019-03-29T01:02:50.885Z,4.97
2019-03-29T01:05:21.223Z,4.87
2019-03-29T01:07:51.545Z,5.37
2019-03-29T01:10:22.214Z,4.27
2019-03-29T01:12:53.141Z,4.30
2019-03-29T01:15:23.707Z,4.87
2019-03-29T01:17:53.949Z,4.43
2019-03-29T01:20:24.050Z,4.93
2019-03-29T01:22:54.401Z,4.00
2019-03-29T01:25:24.728Z,4.40
2019-03-29T01:27:54.882Z,4.60
2019-03-29T01:30:25.052Z,4.17
2019-03-29T01:32:55.436Z,4.63
2019-03-29T01:35:26.461Z,4.70
2019-03-29T01:37:57.506Z,4.40
2019-03-29T01:40:28.157Z,4.20
2019-03-29T01:42:58.889Z,4.30
2019-03-29T01:45:29.169Z,4.90
2019-03-29T01:47:59.233Z,5.07
2019-03-29T01:50:29.787Z,4.97
2019-03-29T01:53:00.523Z,4.50
2019-03-29T01:55:31.020Z,4.40
2019-03-29T01:58:02.384Z,3.93
2019-03-29T02:00:34.456Z,4.50
2019-03-29T02:03:05.513Z,5.07
2019-03-29T02:05:35.675Z,4.30
2019-03-29T02:08:06.711Z,4.60
2019-03-29T02:10:38.042Z,5.00
2019-03-29T02:13:08.118Z,5.27
2019-03-29T02:15:38.545Z,5.17
2019-03-29T02:18:11.233Z,4.90
2019-03-29T02:20:41.478Z,4.50
2019-03-29T02:23:11.805Z,4.00
2019-03-29T02:25:42.454Z,4.80
2019-03-29T02:28:13.866Z,5.40
2019-03-29T02:30:44.509Z,5.10
2019-03-29T02:33:14.871Z,4.97
2019-03-29T02:35:45.151Z,4.73
2019-03-29T02:38:15.320Z,4.77
2019-03-29T02:40:45.548Z,4.90
2019-03-29T02:43:33.528Z,4.50
2019-03-29T02:46:04.085Z,4.57
2019-03-29T02:48:34.585Z,4.90
2019-03-29T02:51:05.186Z,4.63
2019-03-29T02:53:35.627Z,5.73
2019-03-29T02:56:06.307Z,4.73
2019-03-29T02:58:37.105Z,5.67
2019-03-29T03:01:07.330Z,6.07
2019-03-29T03:03:37.725Z,5.73
2019-03-29T03:06:08.125Z,4.67
2019-03-29T03:08:38.139Z,5.20
2019-03-29T03:11:08.214Z,5.67
2019-03-29T03:13:38.485Z,4.97
2019-03-29T03:16:08.681Z,4.57
2019-03-29T03:18:40.202Z,5.20
2019-03-29T03:21:10.248Z,4.60
2019-03-29T03:23:40.289Z,5.37
2019-03-29T03:26:10.715Z,4.77
2019-03-29T03:28:45.807Z,5.10
2019-03-29T03:31:19.593Z,4.73
2019-03-29T03:33:49.571Z,4.53
2019-03-29T03:36:19.550Z,4.80
2019-03-29T03:38:49.875Z,4.77
2019-03-29T03:41:19.944Z,4.97
2019-03-29T03:43:49.981Z,5.20
2019-03-29T03:46:20.192Z,5.43
2019-03-29T03:48:50.199Z,4.60
2019-03-29T03:51:20.322Z,5.33
2019-03-29T03:53:51.146Z,5.40
2019-03-29T03:58:13.544Z,5.10
2019-03-29T04:01:00.055Z,5.47
2019-03-29T04:03:30.200Z,5.23
2019-03-29T04:06:00.582Z,4.80
2019-03-29T04:08:30.868Z,4.80
2019-03-29T04:11:00.961Z,5.20
2019-03-29T04:13:30.987Z,5.60
2019-03-29T04:16:01.678Z,6.40
2019-03-29T04:18:31.797Z,6.17
2019-03-29T04:21:02.078Z,7.10
2019-03-29T04:23:32.264Z,6.80
2019-03-29T04:26:03.173Z,6.17
2019-03-29T04:28:33.337Z,6.23
2019-03-29T04:31:03.594Z,6.33
2019-03-29T04:33:33.854Z,6.60
2019-03-29T04:36:04.012Z,6.03
2019-03-29T04:38:34.108Z,6.63
2019-03-29T04:41:04.990Z,6.73
2019-03-29T04:43:35.252Z,7.10
2019-03-29T04:46:05.865Z,6.87
2019-03-29T04:48:36.054Z,6.47
2019-03-29T04:51:06.372Z,6.97
2019-03-29T04:53:36.708Z,7.27
2019-03-29T04:56:07.262Z,6.83
2019-03-29T04:58:37.823Z,7.30
2019-03-29T05:01:08.207Z,6.57
2019-03-29T05:03:38.452Z,6.73
2019-03-29T05:06:08.852Z,6.80
2019-03-29T05:08:39.140Z,7.83
2019-03-29T05:11:09.562Z,6.37
2019-03-29T05:13:40.069Z,7.23
2019-03-29T05:16:10.561Z,6.70
2019-03-29T05:18:41.154Z,6.17
2019-03-29T05:21:11.448Z,7.03
2019-03-29T05:23:42.226Z,7.70
2019-03-29T05:26:12.542Z,6.93
2019-03-29T05:28:42.788Z,6.73
2019-03-29T05:31:13.356Z,8.60
2019-03-29T05:33:44.091Z,6.77
2019-03-29T05:36:14.522Z,7.33
2019-03-29T05:38:44.931Z,5.87
2019-03-29T05:41:15.755Z,7.10
2019-03-29T05:43:46.133Z,6.90
2019-03-29T05:46:22.443Z,6.77
2019-03-29T05:48:52.627Z,6.40
2019-03-29T05:51:22.651Z,6.47
2019-03-29T05:53:53.360Z,7.03
2019-03-29T05:56:23.531Z,7.23
2019-03-29T05:58:57.223Z,6.07
2019-03-29T06:01:27.360Z,6.37
2019-03-29T06:03:57.840Z,7.67
2019-03-29T06:06:28.247Z,6.13
2019-03-29T06:08:58.582Z,6.13
2019-03-29T06:11:28.712Z,6.07
2019-03-29T06:13:58.962Z,6.40
2019-03-29T06:16:38.995Z,6.97
2019-03-29T06:19:01.438Z,6.53
2019-03-29T06:21:31.716Z,6.37
2019-03-29T06:24:02.164Z,7.40
2019-03-29T06:26:32.623Z,6.87
2019-03-29T06:29:03.199Z,6.83
2019-03-29T06:31:35.300Z,8.37
2019-03-29T06:34:05.656Z,7.30
2019-03-29T06:36:36.447Z,6.60
2019-03-29T06:39:09.546Z,6.13
2019-03-29T06:41:39.813Z,7.40
2019-03-29T06:44:10.069Z,5.80
2019-03-29T06:46:40.282Z,7.33
2019-03-29T06:49:10.974Z,8.30
2019-03-29T06:51:41.118Z,6.70
2019-03-29T06:54:11.284Z,6.80
2019-03-29T06:56:42.166Z,6.70
2019-03-29T06:59:12.326Z,7.00
2019-03-29T07:01:42.355Z,12.43
2019-03-29T07:04:13.018Z,6.97
2019-03-29T07:06:43.314Z,10.80
2019-03-29T07:09:13.489Z,7.90
2019-03-29T07:11:44.063Z,14.43
2019-03-29T07:14:14.329Z,10.20
2019-03-29T07:16:44.491Z,8.40
2019-03-29T07:19:15.293Z,7.70
2019-03-29T07:21:45.535Z,7.57
2019-03-29T07:24:15.983Z,8.00
2019-03-29T07:26:46.105Z,7.23
2019-03-29T07:29:16.286Z,7.90
2019-03-29T07:31:46.679Z,7.97
2019-03-29T07:34:17.181Z,9.60
2019-03-29T07:36:47.564Z,7.17
2019-03-29T07:39:17.645Z,7.77
2019-03-29T07:41:47.893Z,9.10
2019-03-29T07:44:18.383Z,9.23
2019-03-29T07:46:48.527Z,8.17
2019-03-29T07:49:19.276Z,8.03
2019-03-29T07:51:49.577Z,8.40
2019-03-29T07:54:19.605Z,9.43
2019-03-29T07:56:50.143Z,8.97
2019-03-29T07:59:20.848Z,9.53
2019-03-29T08:01:51.003Z,9.83
2019-03-29T08:04:22.098Z,8.83
2019-03-29T08:06:53.604Z,9.00
2019-03-29T08:09:23.956Z,9.00
2019-03-29T08:11:55.376Z,9.50
2019-03-29T08:14:26.019Z,9.37
2019-03-29T08:16:56.500Z,9.40
2019-03-29T08:19:26.904Z,9.77
2019-03-29T08:21:57.971Z,8.53
2019-03-29T08:24:28.349Z,9.50
2019-03-29T08:26:58.727Z,9.07
2019-03-29T08:29:31.390Z,10.83
2019-03-29T08:32:01.045Z,11.20
2019-03-29T08:34:31.244Z,9.37
2019-03-29T08:37:01.415Z,11.53
2019-03-29T08:39:31.912Z,8.70
2019-03-29T08:42:02.678Z,8.40
2019-03-29T08:44:32.924Z,10.93
2019-03-29T08:47:03.167Z,14.00
2019-03-29T08:49:35.862Z,11.27
2019-03-29T08:52:06.125Z,9.87
2019-03-29T08:54:36.258Z,9.70
2019-03-29T08:57:06.507Z,10.23
2019-03-29T08:59:36.764Z,9.97
2019-03-29T09:02:07.895Z,10.07
2019-03-29T09:04:38.331Z,9.77
2019-03-29T09:07:08.421Z,9.67
2019-03-29T09:09:38.960Z,9.83
2019-03-29T09:12:14.605Z,9.40
2019-03-29T09:14:41.254Z,8.80
2019-03-29T09:17:11.282Z,8.83
2019-03-29T09:19:41.691Z,9.40
2019-03-29T09:22:12.135Z,9.47
2019-03-29T09:24:42.216Z,13.90
2019-03-29T09:27:12.399Z,9.83
2019-03-29T09:29:42.658Z,9.90
2019-03-29T09:32:12.756Z,9.23
2019-03-29T09:34:43.360Z,9.27
2019-03-29T09:37:13.597Z,8.60
2019-03-29T09:39:43.642Z,9.57
2019-03-29T09:42:27.808Z,9.57
2019-03-29T09:44:45.746Z,9.67
2019-03-29T09:47:15.955Z,11.97
2019-03-29T09:49:46.648Z,9.07
2019-03-29T09:52:16.698Z,9.17
2019-03-29T09:54:47.022Z,11.37
2019-03-29T09:57:17.262Z,8.77
2019-03-29T09:59:47.431Z,9.43
2019-03-29T10:02:17.922Z,10.60
2019-03-29T10:04:48.487Z,9.97
2019-03-29T10:07:18.769Z,9.77
2019-03-29T10:09:48.879Z,9.07
2019-03-29T10:12:19.015Z,8.40
2019-03-29T10:14:49.315Z,9.27
2019-03-29T10:17:19.358Z,8.87
2019-03-29T10:19:50.201Z,9.23
2019-03-29T10:22:20.372Z,9.10
2019-03-29T10:24:50.632Z,11.80
2019-03-29T10:27:20.962Z,9.70
2019-03-29T10:29:51.094Z,9.67
2019-03-29T10:32:21.535Z,9.53
2019-03-29T10:34:52.223Z,12.67
2019-03-29T10:37:22.297Z,11.60
2019-03-29T10:39:52.450Z,9.60
2019-03-29T10:42:22.978Z,8.23
2019-03-29T10:44:53.106Z,7.53
2019-03-29T10:47:23.123Z,10.20
2019-03-29T10:49:53.735Z,8.50
2019-03-29T10:52:23.849Z,9.37
2019-03-29T10:54:54.289Z,8.77
2019-03-29T10:57:24.376Z,9.30
2019-03-29T10:59:54.380Z,9.67
2019-03-29T11:02:24.761Z,8.33
2019-03-29T11:04:55.070Z,8.10
2019-03-29T11:07:25.044Z,8.57
2019-03-29T11:09:55.313Z,8.63
2019-03-29T11:12:25.465Z,9.77
2019-03-29T11:14:55.524Z,8.30
2019-03-29T11:17:25.869Z,9.37
2019-03-29T11:19:56.234Z,7.50
2019-03-29T11:22:26.254Z,8.50
2019-03-29T11:24:56.544Z,8.77
2019-03-29T11:27:26.743Z,8.30
2019-03-29T11:29:57.439Z,8.50
2019-03-29T11:32:27.569Z,7.80
2019-03-29T11:34:58.262Z,7.60
2019-03-29T11:37:28.490Z,9.53
2019-03-29T11:39:58.599Z,9.47
2019-03-29T11:42:28.763Z,8.80
2019-03-29T11:44:58.820Z,8.17
2019-03-29T11:47:28.973Z,8.80
2019-03-29T11:49:59.885Z,8.80
2019-03-29T11:52:29.949Z,8.93
2019-03-29T11:55:00.417Z,10.77
2019-03-29T11:57:30.567Z,9.23
2019-03-29T12:00:01.078Z,9.93
2019-03-29T12:02:31.867Z,10.47
2019-03-29T12:05:02.661Z,10.50
2019-03-29T12:07:32.710Z,10.07
2019-03-29T12:10:02.744Z,9.03
2019-03-29T12:12:33.008Z,8.90
2019-03-29T12:15:02.979Z,8.17
2019-03-29T12:17:33.133Z,9.13
2019-03-29T12:20:03.680Z,10.17
2019-03-29T12:22:33.685Z,9.87
2019-03-29T12:25:03.889Z,10.43
2019-03-29T12:27:33.980Z,12.07
2019-03-29T12:30:04.539Z,10.50
2019-03-29T12:32:34.871Z,9.87
2019-03-29T12:35:05.665Z,9.97
2019-03-29T12:37:35.734Z,10.37
2019-03-29T12:40:06.267Z,10.47
2019-03-29T12:42:36.323Z,9.40
2019-03-29T12:45:06.651Z,9.77
2019-03-29T12:47:37.330Z,10.00
2019-03-29T12:50:07.932Z,10.07
2019-03-29T12:52:38.233Z,9.60
2019-03-29T12:55:08.505Z,12.13
2019-03-29T12:57:39.139Z,9.73
2019-03-29T13:00:10.522Z,10.03
2019-03-29T13:02:40.748Z,10.27
2019-03-29T13:05:11.647Z,10.23
2019-03-29T13:07:41.880Z,10.13
2019-03-29T13:10:13.513Z,9.87
2019-03-29T13:12:43.676Z,9.50
2019-03-29T13:15:14.181Z,9.70
2019-03-29T13:17:44.315Z,10.30
2019-03-29T13:20:15.016Z,10.10
2019-03-29T13:22:45.199Z,9.97
2019-03-29T13:25:15.447Z,11.83
2019-03-29T13:27:45.656Z,9.77
2019-03-29T13:30:17.281Z,11.17
2019-03-29T13:32:47.781Z,11.07
2019-03-29T13:35:18.138Z,10.10
2019-03-29T13:37:48.417Z,9.97
2019-03-29T13:40:21.034Z,10.60
2019-03-29T13:42:51.029Z,10.03
2019-03-29T13:45:21.213Z,10.73
2019-03-29T13:47:51.307Z,9.97
2019-03-29T13:50:22.053Z,10.13
2019-03-29T13:52:52.064Z,8.87
2019-03-29T13:55:22.157Z,16.13
2019-03-29T13:57:52.541Z,9.80
2019-03-29T14:00:22.546Z,11.40
2019-03-29T14:02:52.666Z,11.10
2019-03-29T14:05:23.220Z,12.13
2019-03-29T14:07:53.264Z,9.93
2019-03-29T14:10:23.336Z,9.17
2019-03-29T14:12:53.777Z,9.00
2019-03-29T14:15:23.870Z,10.33
2019-03-29T14:17:54.209Z,9.80
2019-03-29T14:20:32.940Z,9.63
2019-03-29T14:23:04.618Z,9.57
2019-03-29T14:25:34.738Z,9.50
2019-03-29T14:28:04.949Z,9.87
2019-03-29T14:30:35.049Z,9.60
2019-03-29T14:33:05.143Z,9.03
2019-03-29T14:35:35.997Z,9.27
2019-03-29T14:38:06.037Z,11.93
2019-03-29T14:40:36.113Z,9.10
2019-03-29T14:43:06.368Z,10.27
2019-03-29T14:45:36.622Z,9.50
2019-03-29T14:48:06.757Z,9.37
2019-03-29T14:50:37.230Z,9.90
2019-03-29T14:53:07.358Z,10.20
2019-03-29T14:55:37.355Z,9.13
2019-03-29T14:58:07.841Z,9.87
2019-03-29T15:00:39.921Z,13.70
2019-03-29T15:03:10.290Z,9.87
2019-03-29T15:05:41.036Z,9.67
2019-03-29T15:08:11.347Z,10.27
2019-03-29T15:10:41.353Z,9.73
2019-03-29T15:13:11.494Z,9.73
2019-03-29T15:15:41.928Z,9.13
2019-03-29T15:18:12.020Z,9.20
2019-03-29T15:20:53.324Z,9.20
2019-03-29T15:23:14.532Z,9.20
2019-03-29T15:25:44.597Z,8.97
2019-03-29T15:28:14.609Z,8.50
2019-03-29T15:30:45.007Z,8.60
2019-03-29T15:33:15.090Z,8.47
2019-03-29T15:35:45.677Z,8.20
2019-03-29T15:38:16.189Z,8.30
2019-03-29T15:40:46.225Z,7.83
2019-03-29T15:43:16.430Z,7.23
2019-03-29T15:45:46.756Z,7.90
2019-03-29T15:48:16.770Z,7.07
2019-03-29T15:50:47.466Z,7.07
2019-03-29T15:53:17.722Z,6.80
2019-03-29T15:55:48.066Z,6.87
2019-03-29T15:58:18.162Z,7.50
2019-03-29T16:00:48.312Z,6.67
2019-03-29T16:03:18.678Z,7.80
2019-03-29T16:05:49.264Z,6.70
2019-03-29T16:08:19.626Z,6.33
2019-03-29T16:10:49.865Z,6.57
2019-03-29T16:13:20.116Z,6.30
2019-03-29T16:15:50.148Z,6.63
2019-03-29T16:18:20.234Z,6.40
2019-03-29T16:20:50.842Z,6.63
2019-03-29T16:23:21.114Z,6.73
2019-03-29T16:25:51.361Z,7.47
2019-03-29T16:28:21.532Z,6.77
2019-03-29T16:30:51.863Z,6.70
2019-03-29T16:33:22.158Z,7.10
2019-03-29T16:35:52.494Z,7.27
2019-03-29T16:38:22.760Z,8.10
2019-03-29T16:40:53.073Z,7.83
2019-03-29T16:43:23.198Z,7.73
2019-03-29T16:45:53.235Z,9.23
2019-03-29T16:48:23.793Z,10.73
2019-03-29T16:50:54.416Z,7.43
2019-03-29T16:53:24.492Z,8.43
2019-03-29T16:55:54.860Z,9.73
2019-03-29T16:58:24.948Z,9.43
2019-03-29T17:00:55.018Z,9.60
2019-03-29T17:03:25.328Z,10.00
2019-03-29T17:05:55.790Z,10.10
2019-03-29T17:08:25.968Z,11.70
2019-03-29T17:10:58.633Z,9.50
2019-03-29T17:13:28.988Z,10.37
2019-03-29T17:16:02.002Z,9.40
2019-03-29T17:18:31.129Z,10.03
2019-03-29T17:21:01.602Z,9.23
2019-03-29T17:23:31.664Z,9.87
2019-03-29T17:26:02.545Z,9.60
2019-03-29T17:28:32.609Z,9.63
2019-03-29T17:31:05.078Z,9.43
2019-03-29T17:33:35.201Z,9.37
2019-03-29T17:36:05.446Z,8.60
2019-03-29T17:38:35.707Z,9.63
2019-03-29T17:41:05.792Z,9.10
2019-03-29T17:43:36.261Z,9.20
2019-03-29T17:46:16.128Z,8.83
2019-03-29T17:48:39.754Z,9.30
2019-03-29T17:51:10.366Z,9.93
2019-03-29T17:53:40.483Z,8.90
2019-03-29T17:56:10.562Z,9.13
2019-03-29T17:58:40.639Z,8.87
2019-03-29T18:01:10.973Z,9.53
2019-03-29T18:03:41.057Z,9.57
2019-03-29T18:06:11.554Z,9.37
2019-03-29T18:08:42.565Z,9.00
2019-03-29T18:11:12.640Z,8.70
2019-03-29T18:13:42.676Z,8.80
2019-03-29T18:16:13.246Z,10.00
2019-03-29T18:18:43.361Z,9.47
2019-03-29T18:21:14.101Z,9.03
2019-03-29T18:23:44.129Z,9.10
2019-03-29T18:26:14.237Z,9.13
2019-03-29T18:28:44.559Z,9.10
2019-03-29T18:31:14.914Z,9.50
2019-03-29T18:33:45.496Z,10.90
2019-03-29T18:36:16.275Z,9.90
2019-03-29T18:38:48.341Z,9.10
2019-03-29T18:41:18.440Z,8.77
2019-03-29T18:43:49.344Z,8.63
2019-03-29T18:46:19.584Z,8.57
2019-03-29T18:48:49.700Z,7.53
2019-03-29T18:51:20.339Z,8.27
2019-03-29T18:53:50.893Z,8.00
2019-03-29T18:56:21.407Z,8.47
2019-03-29T18:58:51.550Z,8.50
2019-03-29T19:01:22.005Z,8.27
2019-03-29T19:03:52.036Z,7.93
2019-03-29T19:06:23.590Z,7.63
2019-03-29T19:08:53.709Z,8.80
2019-03-29T19:11:23.887Z,7.53
2019-03-29T19:13:53.959Z,7.23
2019-03-29T19:16:24.231Z,6.83
2019-03-29T19:18:54.702Z,7.07
2019-03-29T19:21:25.786Z,6.90
2019-03-29T19:23:56.226Z,7.50
2019-03-29T19:26:26.273Z,7.73
2019-03-29T19:28:56.521Z,7.27
2019-03-29T19:31:26.932Z,6.97
2019-03-29T19:33:57.041Z,7.33
2019-03-29T19:36:28.179Z,7.60
2019-03-29T19:38:58.434Z,7.80
2019-03-29T19:41:28.637Z,7.57
2019-03-29T19:43:58.766Z,7.70
2019-03-29T19:46:28.983Z,7.80
2019-03-29T19:48:59.109Z,7.73
2019-03-29T19:51:29.679Z,6.83
2019-03-29T19:54:07.305Z,7.53
2019-03-29T19:56:32.064Z,7.83
2019-03-29T19:59:02.125Z,8.07
2019-03-29T20:01:32.306Z,8.10
2019-03-29T20:04:02.606Z,7.63
2019-03-29T20:06:32.970Z,8.60
2019-03-29T20:09:03.738Z,8.80
2019-03-29T20:11:35.411Z,8.67
2019-03-29T20:14:06.216Z,10.07
2019-03-29T20:16:36.540Z,9.67
2019-03-29T20:19:07.046Z,9.57
2019-03-29T20:21:37.357Z,9.80
2019-03-29T20:24:07.394Z,10.17
2019-03-29T20:26:37.852Z,10.80
2019-03-29T20:29:07.968Z,10.13
2019-03-29T20:31:38.382Z,9.37
2019-03-29T20:34:08.590Z,11.03
2019-03-29T20:36:38.764Z,11.20
2019-03-29T20:39:09.246Z,13.03
2019-03-29T20:41:39.509Z,11.83
2019-03-29T20:44:09.824Z,12.20
2019-03-29T20:46:40.152Z,11.63
2019-03-29T20:49:10.270Z,11.97
2019-03-29T20:51:40.455Z,12.90
2019-03-29T20:54:10.955Z,11.93
2019-03-29T20:56:41.590Z,15.47
2019-03-29T20:59:11.696Z,12.70
2019-03-29T21:01:41.922Z,12.67
2019-03-29T21:04:12.079Z,12.70
2019-03-29T21:06:42.307Z,10.13
2019-03-29T21:09:12.643Z,12.93
2019-03-29T21:11:42.723Z,11.83
2019-03-29T21:14:13.006Z,12.23
2019-03-29T21:16:43.124Z,11.93
2019-03-29T21:19:13.145Z,12.90
2019-03-29T21:21:43.479Z,12.50
2019-03-29T21:24:13.520Z,12.77
2019-03-29T21:26:43.605Z,13.87
2019-03-29T21:29:13.893Z,12.27
2019-03-29T21:31:43.981Z,12.10
2019-03-29T21:34:14.081Z,13.10
2019-03-29T21:36:44.596Z,12.40
2019-03-29T21:39:15.185Z,11.60
2019-03-29T21:41:45.551Z,13.23
2019-03-29T21:44:15.658Z,13.33
2019-03-29T21:46:46.164Z,11.53
2019-03-29T21:49:16.401Z,13.30
2019-03-29T21:51:46.654Z,13.00
2019-03-29T21:54:18.540Z,12.90
2019-03-29T21:56:48.668Z,13.67
2019-03-29T21:59:18.996Z,15.03
2019-03-29T22:01:49.445Z,11.90
2019-03-29T22:04:19.653Z,12.20
2019-03-29T22:06:50.414Z,11.87
2019-03-29T22:09:21.031Z,12.20
2019-03-29T22:11:51.754Z,12.27
2019-03-29T22:14:22.044Z,11.67
2019-03-29T22:16:52.478Z,12.87
2019-03-29T22:19:22.732Z,12.90
2019-03-29T22:21:53.113Z,12.10
2019-03-29T22:24:23.281Z,11.80
2019-03-29T22:26:53.285Z,12.63
2019-03-29T22:29:23.525Z,13.07
2019-03-29T22:31:53.808Z,12.50
2019-03-29T22:34:24.139Z,12.73
2019-03-29T22:36:54.526Z,11.70
2019-03-29T22:39:24.750Z,11.23
2019-03-29T22:41:55.049Z,10.87
2019-03-29T22:44:25.089Z,12.17
2019-03-29T22:46:55.351Z,11.63
2019-03-29T22:49:25.702Z,13.87
2019-03-29T22:51:56.248Z,11.60
2019-03-29T22:54:26.549Z,12.33
2019-03-29T22:56:56.982Z,12.97
2019-03-29T22:59:27.298Z,13.83
2019-03-29T23:01:57.476Z,14.60
2019-03-29T23:04:27.638Z,12.83
2019-03-29T23:06:57.767Z,14.17
2019-03-29T23:09:27.937Z,14.10
2019-03-29T23:11:58.100Z,15.53
2019-03-29T23:14:28.430Z,15.47
2019-03-29T23:16:58.501Z,14.83
2019-03-29T23:19:28.525Z,14.03
2019-03-29T23:21:58.891Z,14.67
2019-03-29T23:24:28.990Z,14.23
2019-03-29T23:26:59.169Z,13.33
2019-03-29T23:29:29.523Z,14.30
2019-03-29T23:31:59.766Z,14.57
2019-03-29T23:34:30.152Z,13.97
2019-03-29T23:37:00.326Z,13.60
2019-03-29T23:39:30.448Z,12.90
2019-03-29T23:42:00.932Z,12.73
2019-03-29T23:44:31.001Z,11.83
2019-03-29T23:47:01.172Z,12.33
2019-03-29T23:49:31.387Z,11.93
2019-03-29T23:52:02.279Z,11.47
2019-03-29T23:54:32.335Z,12.73
2019-03-29T23:57:02.551Z,13.47
2019-03-29T23:59:33.134Z,12.43
